Time;durP1;ratioP1;P1;durP2;ratioP2;P2;SDS_P1;SDS_P2;PMS_P1;PMS_P2;Temp;Humidity;BMP_temperature;BMP_pressure;BME280_temperature;BME280_humidity;BME280_pressure;Samples;Min_cycle;Max_cycle;Signal;HPM_P1;HPM_P2
2021/12/23 00:04:52;;;;;;;;;;;-4.00;99.90;;;-5.41;100.00;95938.28;10316910;28;2638;-73
2021/12/23 00:15:28;;;;;;;;;;;-4.00;99.90;;;-5.45;100.00;95922.13;10304546;28;1939;-74
2021/12/23 00:25:52;;;;;;;;;;;-4.10;99.90;;;-5.65;100.00;95925.31;10327834;28;1828;-73
2021/12/23 00:30:55;;;;;;;;;;;-4.20;99.90;;;-5.69;100.00;95919.59;10327658;28;1963;-72
2021/12/23 00:35:58;;;;;;;;;;;-4.20;99.90;;;-5.71;100.00;95922.38;10313412;28;1922;-72
2021/12/23 00:41:03;;;;;;;;;;;-4.30;99.90;;;-5.54;100.00;95917.88;10318008;28;1912;-72
2021/12/23 00:46:06;;;;;;;;;;;-4.30;99.90;;;-5.53;100.00;95924.78;10315888;28;1955;-73
2021/12/23 00:51:10;;;;;;;;;;;-4.20;99.90;;;-5.49;100.00;95905.09;10311563;28;1847;-73
2021/12/23 00:56:14;;;;;;;;;;;-4.20;99.90;;;-5.41;100.00;95900.81;10312840;28;1910;-71
2021/12/23 01:01:17;;;;;;;;;;;-4.20;99.90;;;-5.32;100.00;95889.31;10314102;28;2328;-74
2021/12/23 01:06:21;;;;;;;;;;;-4.20;99.90;;;-5.28;100.00;95886.19;10326660;28;1892;-71
2021/12/23 01:11:25;;;;;;;;;;;-4.10;99.90;;;-5.18;100.00;95886.75;10318914;28;1919;-72
2021/12/23 01:16:48;;;;;;;;;;;-4.00;99.90;;;-5.24;100.00;95886.63;10308600;28;1914;-72
2021/12/23 01:21:51;;;;;;;;;;;-4.00;99.90;;;-5.27;100.00;95894.84;10318178;28;1892;-71
2021/12/23 01:26:54;;;;;;;;;;;-4.00;99.90;;;-5.18;100.00;95885.94;10322413;28;1908;-73
2021/12/23 01:32:00;;;;;;;;;;;-4.00;99.90;;;-5.15;100.00;95901.34;10320107;28;1993;-73
2021/12/23 01:37:03;;;;;;;;;;;-4.00;99.90;;;-5.19;100.00;95892.19;10312981;28;1883;-71
2021/12/23 01:42:06;;;;;;;;;;;-4.00;99.90;;;-5.11;100.00;95897.38;10323322;28;1859;-71
2021/12/23 01:47:09;;;;;;;;;;;-3.90;99.90;;;-5.11;100.00;95897.38;10316964;28;1857;-73
2021/12/23 01:52:12;;;;;;;;;;;-3.90;99.90;;;-5.10;100.00;95893.75;10320192;28;1913;-71
2021/12/23 01:57:16;;;;;;;;;;;-3.90;99.90;;;-5.07;100.00;95893.41;10322284;28;2165;-70
2021/12/23 02:02:19;;;;;;;;;;;-3.90;99.90;;;-5.05;100.00;95891.44;10325932;28;1809;-73
2021/12/23 02:07:22;;;;;;;;;;;-3.90;99.90;;;-5.12;100.00;95890.50;10321038;28;1864;-73
2021/12/23 02:12:25;;;;;;;;;;;-3.90;99.90;;;-5.14;100.00;95882.00;10327845;28;1918;-71
2021/12/23 02:17:28;;;;;;;;;;;-4.00;99.90;;;-5.08;100.00;95870.00;10321046;28;1891;-73
2021/12/23 02:22:32;;;;;;;;;;;-3.90;99.90;;;-5.27;100.00;95853.75;10325527;28;1816;-73
2021/12/23 02:27:35;;;;;;;;;;;-4.10;99.90;;;-5.39;100.00;95851.69;10331252;28;1820;-73
2021/12/23 02:32:38;;;;;;;;;;;-4.10;99.90;;;-5.49;100.00;95837.00;10325431;28;1922;-74
2021/12/23 02:37:42;;;;;;;;;;;-4.20;99.90;;;-5.50;100.00;95835.38;10335115;28;1827;-71
2021/12/23 02:42:45;;;;;;;;;;;-4.20;99.90;;;-5.49;100.00;95825.69;10337112;28;2068;-72
2021/12/23 02:47:49;;;;;;;;;;;-4.20;99.90;;;-5.57;100.00;95808.22;10317748;28;1952;-74
2021/12/23 02:52:53;;;;;;;;;;;-4.30;99.90;;;-5.57;100.00;95808.22;10320857;28;2458;-72
2021/12/23 02:57:57;;;;;;;;;;;-4.40;99.90;;;-5.54;100.00;95807.88;10322232;28;2104;-73
2021/12/23 03:03:00;;;;;;;;;;;-4.30;99.90;;;-5.51;100.00;95812.78;10310262;28;1980;-73
2021/12/23 03:08:04;;;;;;;;;;;-4.30;99.90;;;-5.50;100.00;95822.25;10319615;28;2108;-72
2021/12/23 03:13:07;;;;;;;;;;;-4.30;99.90;;;-5.50;100.00;95819.66;10320343;28;1980;-71
2021/12/23 03:18:14;;;;;;;;;;;-4.40;99.90;;;-5.58;100.00;95818.88;10313701;28;2003;-71
2021/12/23 03:23:18;;;;;;;;;;;-4.30;99.90;;;-5.63;100.00;95819.41;10314137;28;2216;-72
2021/12/23 03:28:26;;;;;;;;;;;-4.40;99.90;;;-5.62;100.00;95810.56;10319953;28;1939;-71
2021/12/23 03:33:29;;;;;;;;;;;-4.40;99.90;;;-5.69;100.00;95806.19;10351542;23;2502;-68
2021/12/23 03:38:32;;;;;;;;;;;-4.50;99.90;;;-5.93;100.00;95797.47;10365723;28;1998;-67
2021/12/23 03:43:36;;;;;;;;;;;-4.60;99.90;;;-5.99;100.00;95783.28;10365229;28;2032;-67
2021/12/23 03:48:38;;;;;;;;;;;-4.70;99.90;;;-6.05;100.00;95777.91;10361547;28;3617;-67
2021/12/23 03:53:41;;;;;;;;;;;-4.70;99.90;;;-6.06;100.00;95766.63;10361166;28;2038;-67
2021/12/23 03:58:45;;;;;;;;;;;-4.80;99.90;;;-6.08;100.00;95758.13;10363277;28;1974;-66
2021/12/23 04:03:49;;;;;;;;;;;-4.80;99.90;;;-6.02;100.00;95767.91;10362786;28;2469;-67
2021/12/23 04:08:52;;;;;;;;;;;-4.90;99.90;;;-5.95;100.00;95762.81;10365523;28;1907;-66
2021/12/23 04:13:55;;;;;;;;;;;-4.70;99.90;;;-6.00;100.00;95762.50;10365498;28;1973;-66
2021/12/23 04:18:58;;;;;;;;;;;-4.80;99.90;;;-6.08;100.00;95765.16;10360223;28;1891;-66
2021/12/23 04:24:02;;;;;;;;;;;-4.80;99.90;;;-6.22;100.00;95737.13;10358356;28;2035;-67
2021/12/23 04:29:05;;;;;;;;;;;-4.90;99.90;;;-6.21;100.00;95731.72;10359657;28;2015;-66
2021/12/23 04:34:09;;;;;;;;;;;-5.00;99.90;;;-6.33;100.00;95727.84;10360471;28;2004;-69
2021/12/23 04:39:12;;;;;;;;;;;-5.20;99.90;;;-6.32;100.00;95714.56;10355847;28;1960;-67
2021/12/23 04:44:15;;;;;;;;;;;-5.10;99.90;;;-6.32;100.00;95711.16;10360537;28;1987;-66
2021/12/23 04:49:22;;;;;;;;;;;-5.20;99.90;;;-6.20;100.00;95690.66;10360561;28;1977;-68
2021/12/23 04:54:25;;;;;;;;;;;-5.10;99.90;;;-6.17;100.00;95678.06;10367923;28;1975;-68
2021/12/23 04:59:28;;;;;;;;;;;-5.10;99.90;;;-6.00;100.00;95682.19;10372538;28;2168;-67
2021/12/23 05:04:32;;;;;;;;;;;-5.00;99.90;;;-6.08;100.00;95684.88;10374084;28;2020;-68
2021/12/23 05:09:35;;;;;;;;;;;-4.90;99.90;;;-5.96;100.00;95692.31;10377030;28;2406;-67
2021/12/23 05:14:38;;;;;;;;;;;-4.80;99.90;;;-6.19;100.00;95703.56;10400321;28;1987;-68
2021/12/23 05:19:42;;;;;;;;;;;-4.90;99.90;;;-6.31;100.00;95703.13;10383723;28;1978;-66
2021/12/23 05:24:49;;;;;;;;;;;-5.10;99.90;;;-6.54;100.00;95712.72;10382145;28;1919;-67
2021/12/23 05:29:51;;;;;;;;;;;-5.20;99.90;;;-6.74;100.00;95712.31;10375519;28;2029;-67
2021/12/23 05:34:56;;;;;;;;;;;;;;;-7.01;100.00;95721.31;10380186;28;1966;-67
2021/12/23 05:39:59;;;;;;;;;;;;;;;-6.81;100.00;95708.69;10371988;28;2354;-65
2021/12/23 05:45:03;;;;;;;;;;;;;;;-7.13;100.00;95707.78;10377186;28;1943;-68
2021/12/23 05:50:06;;;;;;;;;;;-5.80;99.90;;;-7.10;100.00;95694.41;10367662;28;3090;-69
2021/12/23 05:55:09;;;;;;;;;;;-5.60;99.90;;;-7.21;100.00;95702.59;10374871;28;2073;-68
2021/12/23 06:00:13;;;;;;;;;;;-6.00;99.90;;;-7.26;100.00;95699.66;10368091;28;1998;-69
2021/12/23 06:05:16;;;;;;;;;;;-5.90;99.90;;;-7.17;100.00;95685.63;10367221;28;1974;-69
2021/12/23 06:10:19;;;;;;;;;;;-5.70;99.90;;;-7.12;100.00;95685.13;10365063;28;2102;-69
2021/12/23 06:15:23;;;;;;;;;;;-6.50;99.90;;;-7.04;100.00;95685.09;10360607;28;1971;-69
2021/12/23 06:20:26;;;;;;;;;;;-6.20;99.90;;;-6.99;100.00;95695.06;10366893;28;1986;-70
2021/12/23 06:25:29;;;;;;;;;;;-5.50;99.90;;;-7.16;100.00;95694.25;10377579;28;2219;-67
2021/12/23 06:30:32;;;;;;;;;;;-5.80;99.90;;;-7.35;100.00;95692.81;10366913;28;2006;-69
2021/12/23 06:35:36;;;;;;;;;;;-6.00;99.90;;;-7.39;100.00;95707.16;10363438;28;2470;-67
2021/12/23 06:40:39;;;;;;;;;;;-6.40;99.90;;;-7.14;100.00;95703.56;10364702;28;2076;-67
2021/12/23 06:45:43;;;;;;;;;;;-5.90;99.90;;;-7.15;100.00;95709.75;10366160;28;1991;-68
2021/12/23 06:50:46;;;;;;;;;;;-5.80;99.90;;;-7.29;100.00;95710.44;10366791;28;1982;-67
2021/12/23 06:55:51;;;;;;;;;;;-5.90;99.90;;;-7.19;100.00;95710.25;10362879;28;2213;-68
2021/12/23 07:00:55;;;;;;;;;;;-5.90;99.90;;;-7.21;100.00;95696.56;10360951;28;1964;-69
2021/12/23 07:06:05;;;;;;;;;;;-5.80;99.90;;;-7.01;100.00;95686.53;10365981;28;1820;-69
2021/12/23 07:11:10;;;;;;;;;;;-5.80;99.90;;;-6.84;100.00;95688.16;10373449;28;1990;-69
2021/12/23 07:16:13;;;;;;;;;;;-5.60;99.90;;;-6.77;100.00;95689.09;10369781;28;2005;-69
2021/12/23 07:21:16;;;;;;;;;;;-5.50;99.90;;;-6.32;100.00;95698.06;10379161;28;1983;-69
2021/12/23 07:26:19;;;;;;;;;;;-5.30;99.90;;;-6.14;100.00;95709.09;10395905;28;1897;-68
2021/12/23 07:31:21;;;;;;;;;;;-5.10;99.90;;;-6.16;100.00;95710.28;10379355;28;1954;-70
2021/12/23 07:36:27;;;;;;;;;;;-4.90;99.90;;;-5.96;100.00;95708.84;10407914;28;1972;-72
2021/12/23 07:41:30;;;;;;;;;;;-4.80;99.90;;;-5.80;100.00;95718.34;10415970;28;2046;-75
2021/12/23 07:46:33;;;;;;;;;;;-4.70;99.90;;;-5.61;100.00;95733.59;10422500;28;1674;-76
2021/12/23 07:51:37;;;;;;;;;;;-4.50;99.90;;;-5.56;100.00;95718.19;10414334;28;3110;-75
2021/12/23 07:56:40;;;;;;;;;;;-4.60;99.90;;;-5.28;100.00;95715.03;10399176;28;1930;-72
2021/12/23 08:01:43;;;;;;;;;;;-4.30;99.90;;;-4.97;100.00;95696.56;10391693;28;1923;-74
2021/12/23 08:06:53;;;;;;;;;;;-4.00;99.90;;;-4.75;100.00;95698.31;10389937;28;1890;-75
2021/12/23 08:12:00;;;;;;;;;;;-3.80;99.90;;;-4.42;100.00;95709.25;10376147;28;1756;-74
2021/12/23 08:17:03;;;;;;;;;;;-3.60;99.90;;;-4.04;100.00;95692.53;10357357;28;1946;-73
2021/12/23 08:22:08;;;;;;;;;;;-3.20;99.90;;;-3.91;100.00;95683.00;10359775;28;1849;-72
2021/12/23 08:27:11;;;;;;;;;;;-3.00;99.90;;;-3.66;99.79;95677.38;10362481;28;2220;-72
2021/12/23 08:32:14;;;;;;;;;;;-2.70;99.90;;;-3.30;97.55;95662.34;10362911;28;2358;-71
2021/12/23 08:37:17;;;;;;;;;;;;;;;-3.04;97.06;95658.31;10359063;28;1919;-71
2021/12/23 08:42:21;;;;;;;;;;;-2.00;99.90;;;-3.08;95.49;95649.16;10365813;28;1830;-71
2021/12/23 08:47:24;;;;;;;;;;;-1.80;99.90;;;-3.01;95.34;95660.53;10362204;28;2463;-69
2021/12/23 08:52:27;;;;;;;;;;;-2.00;99.90;;;-2.91;93.83;95658.38;10358251;28;2002;-71
2021/12/23 08:57:30;;;;;;;;;;;;;;;-2.61;91.37;95651.09;10355624;28;1919;-70
2021/12/23 09:02:33;;;;;;;;;;;-1.70;99.90;;;-2.34;91.26;95652.03;10346460;28;1858;-72
2021/12/23 09:07:37;;;;;;;;;;;-1.60;99.90;;;-2.06;89.59;95643.19;10353801;28;1823;-72
2021/12/23 09:12:40;;;;;;;;;;;-1.30;99.90;;;-2.11;89.87;95624.53;10360394;28;1854;-73
2021/12/23 09:17:44;;;;;;;;;;;;;;;-1.71;89.45;95626.28;10356135;28;1914;-72
2021/12/23 09:22:48;;;;;;;;;;;;;;;-1.62;88.01;95621.59;10356147;28;1879;-71
2021/12/23 09:28:05;;;;;;;;;;;-1.00;99.90;;;-1.72;89.39;95626.44;10358757;28;1828;-72
2021/12/23 09:33:08;;;;;;;;;;;-0.70;99.90;;;-1.34;88.50;95625.88;10355280;28;1826;-72
2021/12/23 09:38:28;;;;;;;;;;;-0.60;99.90;;;-1.16;88.53;95618.97;10361986;28;2235;-72
2021/12/23 09:43:31;;;;;;;;;;;-0.10;99.90;;;-0.80;85.50;95603.72;10365400;28;2164;-71
2021/12/23 09:48:34;;;;;;;;;;;0.00;99.90;;;-0.29;81.20;95606.38;10364594;28;2382;-71
2021/12/23 09:53:37;;;;;;;;;;;0.30;99.90;;;0.11;77.13;95625.50;10359036;28;3257;-71
2021/12/23 09:58:40;;;;;;;;;;;0.60;99.90;;;-0.02;76.64;95602.59;10366015;28;2169;-71
2021/12/23 10:03:45;;;;;;;;;;;;;;;0.20;74.44;95583.78;10359727;28;1883;-70
2021/12/23 10:08:48;;;;;;;;;;;1.10;99.90;;;0.76;74.39;95577.63;10382480;28;2078;-75
2021/12/23 10:40:36;;;;;;;;;;;2.10;99.90;;;1.58;65.32;95536.66;10348548;28;1800;-77
2021/12/23 10:45:45;;;;;;;;;;;2.30;99.90;;;1.59;63.54;95529.50;10344108;28;1842;-78
2021/12/23 10:50:51;;;;;;;;;;;2.40;99.90;;;1.73;63.24;95501.03;10333739;28;2423;-78
2021/12/23 11:01:17;;;;;;;;;;;2.70;99.90;;;2.35;62.70;95473.16;10338169;28;2204;-78
2021/12/23 11:06:26;;;;;;;;;;;3.00;99.90;;;2.30;62.94;95458.97;10326656;28;1777;-78
2021/12/23 11:12:07;;;;;;;;;;;3.10;99.90;;;2.29;62.84;95447.56;10326177;28;1840;-78
2021/12/23 11:38:38;;;;;;;;;;;3.90;99.90;;;3.19;60.00;95428.53;10328386;28;1918;-78
2021/12/23 11:43:48;;;;;;;;;;;4.00;99.90;;;3.56;57.94;95419.38;10327224;28;1858;-78
2021/12/23 11:48:54;;;;;;;;;;;4.20;99.90;;;3.60;57.53;95410.72;10327363;28;1899;-76
2021/12/23 11:53:57;;;;;;;;;;;;;;;3.73;57.71;95413.06;10318210;28;1896;-79
2021/12/23 11:59:00;;;;;;;;;;;;;;;3.99;57.37;95405.53;10325010;28;2099;-76
2021/12/23 12:04:04;;;;;;;;;;;;;;;3.61;60.64;95401.69;10323258;28;1967;-76
2021/12/23 12:09:07;;;;;;;;;;;;;;;3.83;58.70;95393.03;10324339;28;1876;-75
2021/12/23 12:14:11;;;;;;;;;;;;;;;3.64;59.64;95387.94;10323695;28;1797;-78
2021/12/23 12:19:14;;;;;;;;;;;;;;;3.49;60.10;95383.13;10325717;28;1974;-78
2021/12/23 12:24:18;;;;;;;;;;;4.40;99.90;;;3.52;62.25;95374.69;10341934;28;1816;-79
2021/12/23 12:29:22;;;;;;;;;;;4.40;99.90;;;3.82;62.17;95375.44;10318486;28;2272;-77
2021/12/23 12:34:25;;;;;;;;;;;4.50;99.90;;;4.05;62.04;95369.97;10323565;28;1887;-79
2021/12/23 12:39:28;;;;;;;;;;;4.60;99.90;;;3.97;61.52;95373.84;10340863;28;1832;-77
2021/12/23 12:44:35;;;;;;;;;;;4.80;99.90;;;4.19;60.70;95367.78;10323950;28;1845;-76
2021/12/23 12:49:39;;;;;;;;;;;4.70;99.90;;;4.02;63.09;95354.53;10327051;28;1872;-77
2021/12/23 12:54:42;;;;;;;;;;;5.00;99.90;;;4.20;61.45;95346.28;10332493;28;1906;-76
2021/12/23 12:59:44;;;;;;;;;;;4.80;99.90;;;4.20;63.75;95337.47;10351461;28;1438;-76
2021/12/23 13:04:47;;;;;;;;;;;4.70;99.90;;;4.35;62.37;95335.06;10348457;28;1834;-79
2021/12/23 13:09:51;;;;;;;;;;;4.70;99.90;;;4.32;62.21;95336.31;10371803;28;1693;-78
2021/12/23 13:15:15;;;;;;;;;;;5.00;99.90;;;4.43;63.16;95326.63;10378247;28;1964;-78
2021/12/23 13:20:18;;;;;;;;;;;5.10;99.90;;;4.40;63.50;95331.66;10363317;28;1378;-78
2021/12/23 13:25:21;;;;;;;;;;;5.00;99.90;;;4.44;63.29;95314.13;10364705;28;1378;-79
2021/12/23 13:30:24;;;;;;;;;;;5.10;99.90;;;4.46;62.37;95317.38;10369709;28;1942;-79
2021/12/23 13:35:27;;;;;;;;;;;5.20;99.90;;;4.56;61.67;95310.31;10358496;28;1952;-76
2021/12/23 13:40:30;;;;;;;;;;;4.90;99.90;;;4.50;62.35;95300.66;10338110;28;1590;-78
2021/12/23 13:45:33;;;;;;;;;;;5.20;99.90;;;4.55;62.84;95299.91;10336650;28;1622;-76
2021/12/23 13:50:41;;;;;;;;;;;5.30;99.90;;;4.46;62.64;95301.41;10336119;28;1587;-77
2021/12/23 13:55:46;;;;;;;;;;;5.40;99.90;;;4.38;64.12;95293.81;10336131;28;2029;-78
2021/12/23 14:00:49;;;;;;;;;;;5.20;99.90;;;4.37;64.27;95298.34;10332713;28;1860;-77
2021/12/23 14:05:52;;;;;;;;;;;5.40;99.90;;;4.41;65.27;95293.34;10333693;28;1788;-78
2021/12/23 14:10:55;;;;;;;;;;;5.30;99.90;;;4.07;65.40;95288.09;10334356;28;1829;-78
2021/12/23 14:15:58;;;;;;;;;;;5.20;99.90;;;3.99;66.19;95285.84;10332776;28;1910;-76
2021/12/23 14:26:29;;;;;;;;;;;5.00;99.90;;;3.91;67.02;95288.94;10340412;28;2019;-76
2021/12/23 14:31:32;;;;;;;;;;;4.90;99.90;;;3.84;66.90;95298.94;10329659;28;1868;-78
2021/12/23 14:36:35;;;;;;;;;;;4.90;99.90;;;3.77;67.80;95305.22;10331266;28;1979;-77
2021/12/23 14:41:39;;;;;;;;;;;4.80;99.90;;;3.74;68.19;95299.56;10332096;28;1539;-77
2021/12/23 14:46:42;;;;;;;;;;;4.80;99.90;;;3.60;69.59;95300.94;10332967;28;1895;-76
2021/12/23 14:51:46;;;;;;;;;;;4.70;99.90;;;3.42;72.51;95297.44;10328106;28;1930;-77
2021/12/23 14:56:58;;;;;;;;;;;4.60;99.90;;;3.09;75.51;95300.06;10345247;28;1961;-78
2021/12/23 15:02:01;;;;;;;;;;;4.40;99.90;;;3.04;77.42;95292.78;10332055;28;1836;-78
2021/12/23 15:07:05;;;;;;;;;;;4.20;99.90;;;2.88;78.59;95297.03;10341238;28;2102;-79
2021/12/23 15:12:08;;;;;;;;;;;4.10;99.90;;;2.62;80.42;95303.69;10329664;28;1889;-78
2021/12/23 15:17:16;;;;;;;;;;;3.90;99.90;;;2.44;80.76;95291.38;10327971;28;1981;-81
2021/12/23 15:22:19;;;;;;;;;;;3.70;99.90;;;2.30;81.16;95294.53;10346897;28;1436;-79
2021/12/23 15:27:22;;;;;;;;;;;3.50;99.90;;;2.42;80.48;95298.78;10332599;28;1615;-79
2021/12/23 15:32:25;;;;;;;;;;;3.40;99.90;;;2.34;81.22;95285.06;10327069;28;1786;-79
2021/12/23 15:37:31;;;;;;;;;;;3.40;99.90;;;2.33;81.51;95289.56;10327229;28;1906;-78
2021/12/23 15:42:34;;;;;;;;;;;3.40;99.90;;;2.39;81.51;95288.63;10330666;28;2058;-77
2021/12/23 15:47:38;;;;;;;;;;;3.30;99.90;;;2.43;81.86;95292.44;10355629;28;1690;-76
2021/12/23 15:52:41;;;;;;;;;;;3.40;99.90;;;2.81;81.17;95285.75;10351447;28;1778;-77
2021/12/23 15:57:45;;;;;;;;;;;3.50;99.90;;;2.64;81.25;95280.38;10346562;28;1888;-75
2021/12/23 16:02:49;;;;;;;;;;;3.70;99.90;;;2.46;82.33;95277.06;10346447;28;1646;-76
2021/12/23 16:07:53;;;;;;;;;;;3.60;99.90;;;2.39;83.41;95266.59;10347144;28;1895;-77
2021/12/23 16:12:56;;;;;;;;;;;3.50;99.90;;;2.41;84.48;95275.13;10340114;28;1991;-76
2021/12/23 16:17:59;;;;;;;;;;;3.40;99.90;;;2.52;84.66;95261.03;10342106;28;1895;-75
2021/12/23 16:23:05;;;;;;;;;;;3.50;99.90;;;2.58;85.18;95243.38;10349501;28;1813;-77
2021/12/23 16:28:08;;;;;;;;;;;3.50;99.90;;;2.64;84.96;95232.59;10354495;28;2011;-78
2021/12/23 16:33:13;;;;;;;;;;;3.50;99.90;;;2.75;85.54;95222.19;10373856;28;1903;-75
2021/12/23 16:38:16;;;;;;;;;;;3.60;99.90;;;2.93;86.75;95224.66;10371531;28;1923;-79
2021/12/23 16:43:20;;;;;;;;;;;;;;;2.95;90.27;95212.72;10342340;28;1844;-77
2021/12/23 16:48:23;;;;;;;;;;;3.70;99.90;;;3.02;88.79;95201.97;10330712;28;1828;-77
2021/12/23 16:53:26;;;;;;;;;;;3.80;99.90;;;2.94;90.65;95216.44;10318350;28;1873;-77
2021/12/23 16:58:30;;;;;;;;;;;3.80;99.90;;;2.76;96.43;95197.25;10324640;28;1977;-76
2021/12/23 17:03:33;;;;;;;;;;;3.90;99.90;;;2.70;99.37;95207.78;10325823;28;1699;-77
2021/12/23 17:08:36;;;;;;;;;;;3.80;99.90;;;2.76;100.00;95207.88;10353388;28;1883;-79
2021/12/23 17:13:39;;;;;;;;;;;3.70;99.90;;;2.89;100.00;95204.91;10369809;28;1428;-76
2021/12/23 17:18:54;;;;;;;;;;;3.80;99.90;;;2.88;100.00;95200.66;10329230;28;1918;-76
2021/12/23 17:23:57;;;;;;;;;;;3.80;99.90;;;2.88;100.00;95212.09;10326364;28;1697;-79
2021/12/23 17:28:59;;;;;;;;;;;3.90;99.90;;;2.94;100.00;95199.69;10327089;28;1988;-78
2021/12/23 17:34:02;;;;;;;;;;;3.90;99.90;;;2.96;100.00;95200.25;10319430;28;1925;-76
2021/12/23 17:39:05;;;;;;;;;;;4.00;99.90;;;2.96;100.00;95193.09;10360429;28;1906;-77
2021/12/23 17:44:09;;;;;;;;;;;4.00;99.90;;;2.93;100.00;95176.84;10366497;28;1850;-75
2021/12/23 17:49:12;;;;;;;;;;;3.90;99.90;;;2.97;100.00;95156.72;10344341;28;1208;-76
2021/12/23 17:54:15;;;;;;;;;;;3.90;99.90;;;2.98;100.00;95153.03;10329243;28;2319;-77
2021/12/23 17:59:19;;;;;;;;;;;4.00;99.90;;;3.06;100.00;95139.38;10330580;28;1983;-77
2021/12/23 18:04:23;;;;;;;;;;;4.00;99.90;;;3.06;100.00;95134.06;10333355;28;1617;-77
2021/12/23 18:09:26;;;;;;;;;;;4.00;99.90;;;3.07;100.00;95122.38;10342900;28;2034;-77
2021/12/23 18:14:29;;;;;;;;;;;4.00;99.90;;;3.19;100.00;95138.25;10340603;28;1531;-77
2021/12/23 18:19:32;;;;;;;;;;;4.20;99.90;;;3.27;100.00;95135.16;10339423;28;2098;-77
2021/12/23 18:24:37;;;;;;;;;;;4.20;99.90;;;3.34;100.00;95140.31;10334586;28;1927;-78
2021/12/23 18:29:39;;;;;;;;;;;4.30;99.90;;;3.37;100.00;95129.19;10333436;28;1922;-79
2021/12/23 18:34:46;;;;;;;;;;;4.30;99.90;;;3.31;100.00;95119.53;10331936;28;2008;-77
2021/12/23 18:39:59;;;;;;;;;;;4.30;99.90;;;3.42;100.00;95111.47;10360806;28;1960;-76
2021/12/23 18:45:06;;;;;;;;;;;4.30;99.90;;;3.36;100.00;95106.31;10359827;28;1821;-75
2021/12/23 18:50:09;;;;;;;;;;;4.30;99.90;;;3.34;100.00;95093.28;10355717;28;1939;-76
2021/12/23 18:55:12;;;;;;;;;;;4.30;99.90;;;3.34;100.00;95087.97;10374720;23;2151;-71
2021/12/23 19:00:18;;;;;;;;;;;4.30;99.90;;;3.38;100.00;95077.69;10382783;28;1958;-70
2021/12/23 19:05:25;;;;;;;;;;;4.30;99.90;;;3.50;100.00;95083.69;10371686;28;1719;-71
2021/12/23 19:10:28;;;;;;;;;;;4.40;99.90;;;3.58;100.00;95091.22;10361409;28;1803;-71
2021/12/23 19:15:31;;;;;;;;;;;4.50;99.90;;;3.70;100.00;95091.91;10362381;28;1849;-70
2021/12/23 19:20:35;;;;;;;;;;;4.70;99.90;;;3.67;100.00;95096.91;10362231;28;1918;-71
2021/12/23 19:25:38;;;;;;;;;;;4.70;99.90;;;3.67;100.00;95095.06;10360148;28;2131;-71
2021/12/23 19:30:41;;;;;;;;;;;4.70;99.90;;;3.75;100.00;95092.00;10361115;28;1997;-70
2021/12/23 19:35:44;;;;;;;;;;;4.70;99.90;;;4.05;100.00;95086.19;10359659;28;1914;-70
2021/12/23 19:40:47;;;;;;;;;;;4.80;99.90;;;4.01;100.00;95071.81;10361559;28;1958;-72
2021/12/23 19:45:50;;;;;;;;;;;5.00;99.90;;;4.32;98.74;95074.78;10365316;28;1984;-71
2021/12/23 19:50:54;;;;;;;;;;;5.10;99.90;;;4.57;96.81;95075.00;10362060;28;1894;-71
2021/12/23 19:55:57;;;;;;;;;;;5.40;99.90;;;4.87;93.85;95074.47;10377586;28;1822;-72
2021/12/23 20:01:00;;;;;;;;;;;5.70;99.90;;;4.89;96.05;95077.66;10376240;28;1988;-71
2021/12/23 20:06:03;;;;;;;;;;;5.90;99.90;;;5.03;93.40;95066.63;10363703;28;1737;-71
2021/12/23 20:11:10;;;;;;;;;;;6.00;99.90;;;5.20;90.59;95061.13;10386961;28;1857;-71
2021/12/23 20:16:14;;;;;;;;;;;7.40;99.90;;;5.26;89.44;95071.53;10393983;28;1817;-71
2021/12/23 20:21:17;;;;;;;;;;;6.20;99.90;;;5.48;87.12;95068.75;10358543;28;1923;-70
2021/12/23 20:26:21;;;;;;;;;;;6.40;99.90;;;5.37;90.71;95083.88;10358238;28;1834;-71
2021/12/23 20:31:25;;;;;;;;;;;6.50;99.90;;;5.40;91.78;95078.03;10360723;28;2196;-71
2021/12/23 20:36:28;;;;;;;;;;;6.40;99.90;;;5.13;98.25;95082.66;10355556;28;1887;-71
2021/12/23 20:41:32;;;;;;;;;;;6.40;99.90;;;5.02;100.00;95080.97;10360549;28;1882;-71
2021/12/23 20:46:36;;;;;;;;;;;6.20;99.90;;;4.97;100.00;95075.63;10358399;28;1807;-71
2021/12/23 20:51:40;;;;;;;;;;;6.10;99.90;;;5.14;99.64;95068.25;10356915;28;1808;-71
2021/12/23 20:56:43;;;;;;;;;;;6.10;99.90;;;5.24;98.04;95078.19;10359826;28;1918;-71
2021/12/23 21:01:47;;;;;;;;;;;6.20;99.90;;;5.41;95.95;95084.19;10361184;28;1881;-69
2021/12/23 21:06:50;;;;;;;;;;;6.40;99.90;;;5.63;93.06;95082.16;10355720;28;1826;-68
2021/12/23 21:11:53;;;;;;;;;;;6.60;99.90;;;5.64;94.19;95088.28;10357946;28;1881;-71
2021/12/23 21:16:56;;;;;;;;;;;;;;;5.78;93.82;95078.75;10361558;28;1978;-70
2021/12/23 21:22:00;;;;;;;;;;;;;;;5.78;95.40;95072.63;10360093;28;1862;-70
2021/12/23 21:27:04;;;;;;;;;;;;;;;5.76;98.00;95075.56;10371989;28;1940;-70
2021/12/23 21:32:08;;;;;;;;;;;;;;;5.71;100.00;95059.53;10370625;28;1886;-69
2021/12/23 21:37:12;;;;;;;;;;;;;;;5.59;100.00;95070.41;10369118;28;1899;-70
2021/12/23 21:42:16;;;;;;;;;;;;;;;5.70;100.00;95073.91;10375098;28;1926;-69
2021/12/23 21:47:20;;;;;;;;;;;;;;;5.81;99.96;95056.09;10378702;28;2196;-70
2021/12/23 21:52:23;;;;;;;;;;;;;;;5.84;100.00;95069.72;10372358;28;1981;-71
2021/12/23 21:57:27;;;;;;;;;;;;;;;5.90;99.25;95057.19;10372757;28;1914;-70
2021/12/23 22:02:31;;;;;;;;;;;;;;;6.01;99.01;95068.75;10371915;28;1823;-71
2021/12/23 22:07:35;;;;;;;;;;;;;;;6.13;98.15;95070.13;10388388;28;1882;-71
2021/12/23 22:12:39;;;;;;;;;;;;;;;6.09;97.76;95074.38;10370020;28;1915;-71
2021/12/23 22:17:45;;;;;;;;;;;;;;;6.09;99.46;95077.03;10394684;22;1892;-79
2021/12/23 22:23:06;;;;;;;;;;;;;;;6.01;100.00;95074.09;10331297;28;2054;-79
2021/12/23 22:28:15;;;;;;;;;;;;;;;6.05;99.62;95062.63;10328270;28;2029;-79
2021/12/23 22:33:19;;;;;;;;;;;;;;;6.03;99.95;95064.75;10342085;28;2221;-78
2021/12/23 22:38:22;;;;;;;;;;;;;;;6.11;100.00;95055.44;10351989;28;1982;-79
2021/12/23 22:43:26;;;;;;;;;;;;;;;5.95;100.00;95047.38;10328748;28;2013;-79
2021/12/23 22:48:29;;;;;;;;;;;;;;;6.15;100.00;95053.84;10333400;28;2057;-78
2021/12/23 22:53:32;;;;;;;;;;;;;;;6.07;99.86;95044.50;10330057;28;1761;-79
2021/12/23 22:58:36;;;;;;;;;;;;;;;6.20;99.29;95038.66;10344692;28;1887;-79
2021/12/23 23:03:39;;;;;;;;;;;;;;;6.34;96.81;95048.81;10328784;28;2019;-80
2021/12/23 23:08:43;;;;;;;;;;;;;;;6.52;94.82;95036.84;10334277;28;2118;-81
2021/12/23 23:13:56;;;;;;;;;;;;;;;6.30;96.42;95026.38;10338071;28;2031;-79
2021/12/23 23:19:03;;;;;;;;;;;;;;;6.19;95.64;95026.38;10345555;28;1887;-80
2021/12/23 23:24:13;;;;;;;;;;;;;;;6.16;96.10;95032.22;10366930;28;1606;-82
2021/12/23 23:40:12;;;;;;;;;;;;;;;6.46;94.53;95034.16;10331017;28;1915;-80
2021/12/23 23:45:15;;;;;;;;;;;;;;;6.52;93.33;95024.28;10350767;28;1817;-79
2021/12/23 23:50:19;;;;;;;;;;;;;;;6.57;93.88;95029.63;10339365;28;1782;-80
2021/12/23 23:55:23;;;;;;;;;;;;;;;6.55;93.03;95022.94;10349717;28;1883;-81
